Fort Worden, Washington
Current Conditions -  °F | °C
As of 1:56 AM on Saturday 20 Dec 2014 (Local Time) from KNUW Reporting Station
Overcast Overcast  
Wind Chill: 50°   Ceiling: 8500
Heat Index: 50°   Visibility: 10mi
Dew Point: 39°   Wind: 24mph
Humidity: 66%   Direction: 130°SE
Pressure: 29.76"   Gusts: 41mph
Location:  48.026°N, 122.859°W
Report Text: KNUW 200956Z 13021G36KT 10SM SCT035 BKN085 OVC110 10/04 A2976 RMK AO2 PK WND 14036/0956 RAE04 SLP081 P0000 T01000039 VISNO E $
Loading
Personal Weather Stations






























Interactive Weather Map New forecast layout! Learn more

10-Day Weather Forecast

Advertisements
Track Severe Weather on mobile